首页
METAR-TAF:

METAR-TAF

机场 :

Wings Field

費城 / Blue Bell, 宾夕法尼亚州, 美国

纬度: 40-08-15N, 经度: 075-15-54W, 海拔: 92米

当前天气观测

该预报发布于27分钟前的16:35 UTC
风速11节,风向西北,有时为21节阵风,在西北转西北之间变化
温度 11°C
湿度 37%
气压 1008 hPa
能見度: 16.1公里
散云层高于6000英尺

METAR: KLOM 021635Z AUTO 32011G21KT 280V340 10SM SCT060 11/M03 A2976 RMK AO2 T01101028

时间: 13:02 (17:02 UTC)


TAF: 丢失

超过4000个机场的气象观测和天气预报(METAR&TAF报告)。

可查询的气象台以黄色和红色小点在地图上表示。

将鼠标移到小点上方,可查看气象台名称。

然后点击查看天气观测和预报。

如需切换地图:点击带黑十字的绿色按钮放大地图;点击带横线的绿色按钮缩小地图;或者点击绿色箭头查看邻近地区的地图。


METAR-TAF: